Time;durP1;ratioP1;P1;durP2;ratioP2;P2;SDS_P1;SDS_P2;PMS_P1;PMS_P2;Temp;Humidity;BMP_temperature;BMP_pressure;BME280_temperature;BME280_humidity;BME280_pressure;Samples;Min_cycle;Max_cycle;Signal;HPM_P1;HPM_P2
2022/02/24 00:02:04;;;;;;;;;;;6.30;98.30;;;;;;5036718;28;20031;-69
2022/02/24 00:04:30;;;;;;;4.63;1.27;;;6.30;98.50;;;;;;5039474;28;19909;-70
2022/02/24 00:06:56;;;;;;;6.70;1.15;;;6.30;98.60;;;;;;5037781;28;20028;-69
2022/02/24 00:09:21;;;;;;;;;;;6.30;98.60;;;;;;5038250;28;20033;-69
2022/02/24 00:11:47;;;;;;;3.03;0.80;;;6.30;98.50;;;;;;5038569;28;19908;-69
2022/02/24 00:14:12;;;;;;;;;;;6.30;98.60;;;;;;5038016;28;20499;-69
2022/02/24 00:16:37;;;;;;;5.10;0.82;;;6.30;98.60;;;;;;5037737;28;19916;-70
2022/02/24 00:19:03;;;;;;;2.92;0.90;;;6.30;98.40;;;;;;5037275;28;20029;-69
2022/02/24 00:21:28;;;;;;;4.03;0.75;;;6.30;98.50;;;;;;5039140;28;20067;-69
2022/02/24 00:23:54;;;;;;;7.25;2.15;;;6.30;98.50;;;;;;5041558;28;20525;-69
2022/02/24 00:26:19;;;;;;;7.25;1.00;;;6.20;98.50;;;;;;5041440;28;20087;-69
2022/02/24 00:28:45;;;;;;;3.20;0.57;;;6.20;98.60;;;;;;5041679;28;20464;-70
2022/02/24 00:31:10;;;;;;;9.70;2.88;;;6.20;98.50;;;;;;5041551;28;20025;-69
2022/02/24 00:33:38;;;;;;;3.60;1.38;;;6.20;98.40;;;;;;5042670;28;20429;-69
2022/02/24 00:36:04;;;;;;;2.42;0.68;;;6.20;98.50;;;;;;5040779;28;20111;-69
2022/02/24 00:38:30;;;;;;;7.32;1.55;;;6.30;98.60;;;;;;5041670;28;20746;-69
2022/02/24 00:40:55;;;;;;;3.15;0.60;;;6.30;98.50;;;;;;5041037;28;20559;-70
2022/02/24 00:43:21;;;;;;;3.08;1.15;;;6.20;98.50;;;;;;5041844;28;20059;-69
2022/02/24 00:45:46;;;;;;;7.10;1.80;;;6.20;98.40;;;;;;5041023;28;20429;-69
2022/02/24 00:48:12;;;;;;;5.47;1.80;;;6.20;98.50;;;;;;5040920;28;20080;-69
2022/02/24 00:50:38;;;;;;;7.05;1.25;;;6.20;98.70;;;;;;5040849;28;20060;-69
2022/02/24 00:53:03;;;;;;;7.05;1.20;;;6.20;98.60;;;;;;5040377;28;20049;-69
2022/02/24 00:55:29;;;;;;;5.72;1.10;;;6.20;98.60;;;;;;5048240;28;20032;-69
2022/02/24 00:57:54;;;;;;;;;;;6.20;98.70;;;;;;5040870;28;20043;-69
2022/02/24 01:00:20;;;;;;;4.13;0.95;;;6.10;98.70;;;;;;5041313;28;19918;-69
2022/02/24 01:02:46;;;;;;;7.90;0.95;;;6.10;98.80;;;;;;5041448;28;20025;-69
2022/02/24 01:05:12;;;;;;;3.72;0.93;;;6.00;98.80;;;;;;5040000;28;20037;-69
2022/02/24 01:07:37;;;;;;;4.88;1.00;;;6.00;98.90;;;;;;5040304;28;20031;-69
2022/02/24 01:10:04;;;;;;;8.20;3.30;;;5.90;99.00;;;;;;5039902;28;20032;-69
2022/02/24 01:12:30;;;;;;;1.63;0.95;;;5.90;99.00;;;;;;5041863;28;20033;-69
2022/02/24 01:14:56;;;;;;;6.00;1.13;;;5.90;99.00;;;;;;5041028;28;20030;-69
2022/02/24 01:17:21;;;;;;;4.20;1.10;;;5.90;99.10;;;;;;5039263;28;20564;-69
2022/02/24 01:19:48;;;;;;;;;;;5.90;99.10;;;;;;5042090;28;20116;-69
2022/02/24 01:22:16;;;;;;;8.05;1.60;;;5.90;99.20;;;;;;5041157;28;20007;-70
2022/02/24 01:24:42;;;;;;;5.10;1.05;;;5.80;99.10;;;;;;5039729;28;20564;-69
2022/02/24 01:27:07;;;;;;;4.65;0.85;;;5.80;99.10;;;;;;5040504;28;20029;-69
2022/02/24 01:29:33;;;;;;;;;;;5.80;99.20;;;;;;5041526;28;20079;-70
2022/02/24 01:31:58;;;;;;;3.60;1.02;;;5.90;99.30;;;;;;5041072;28;19912;-69
2022/02/24 01:34:27;;;;;;;;;;;5.90;99.20;;;;;;5039141;28;20030;-69
2022/02/24 01:36:53;;;;;;;5.07;0.90;;;5.90;99.20;;;;;;5042577;28;20333;-70
2022/02/24 01:39:18;;;;;;;;;;;6.00;99.20;;;;;;5040764;28;20087;-69
2022/02/24 01:41:44;;;;;;;3.28;0.90;;;6.00;99.20;;;;;;5039840;28;19923;-69
2022/02/24 01:44:11;;;;;;;2.38;0.73;;;6.10;99.20;;;;;;5040290;28;20083;-69
2022/02/24 01:46:37;;;;;;;3.55;0.88;;;6.10;99.00;;;;;;5040343;28;20233;-69
2022/02/24 01:49:04;;;;;;;4.75;1.27;;;6.20;99.10;;;;;;5040348;28;20032;-69
2022/02/24 01:51:31;;;;;;;2.10;0.68;;;6.30;99.10;;;;;;5040974;28;20637;-69
2022/02/24 01:53:56;;;;;;;6.28;1.17;;;6.30;99.00;;;;;;5040477;28;20037;-69
2022/02/24 01:56:22;;;;;;;7.03;1.08;;;6.40;99.00;;;;;;5040703;28;20126;-69
2022/02/24 01:58:48;;;;;;;4.60;1.20;;;6.40;99.10;;;;;;5039764;28;20070;-69
2022/02/24 02:01:14;;;;;;;3.47;1.40;;;6.40;99.00;;;;;;5039818;28;20029;-69
2022/02/24 02:03:40;;;;;;;6.82;1.60;;;6.40;99.00;;;;;;5040501;28;20024;-69
2022/02/24 02:06:06;;;;;;;2.45;0.90;;;6.50;99.00;;;;;;5039163;28;20040;-69
2022/02/24 02:08:32;;;;;;;5.60;1.02;;;6.50;99.00;;;;;;5040465;28;20034;-69
2022/02/24 02:10:57;;;;;;;4.25;1.13;;;6.60;99.00;;;;;;5040302;28;20033;-69
2022/02/24 02:13:23;;;;;;;5.43;2.63;;;6.60;99.00;;;;;;5041029;28;20390;-69
2022/02/24 02:15:49;;;;;;;;;;;6.70;99.00;;;;;;5039060;28;20032;-69
2022/02/24 02:18:14;;;;;;;4.75;1.90;;;6.70;99.00;;;;;;5039582;28;19920;-69
2022/02/24 02:20:40;;;;;;;8.75;3.28;;;6.70;99.00;;;;;;5039192;28;20028;-69
2022/02/24 02:23:06;;;;;;;10.32;3.20;;;6.70;99.10;;;;;;5039983;28;20029;-69
2022/02/24 02:25:32;;;;;;;11.98;5.25;;;6.70;99.00;;;;;;5040443;28;20046;-69
2022/02/24 02:27:57;;;;;;;;;;;6.70;99.00;;;;;;5038868;28;20041;-69
2022/02/24 02:30:23;;;;;;;15.15;5.65;;;6.80;99.00;;;;;;5038569;28;20086;-69
2022/02/24 02:32:49;;;;;;;6.55;2.10;;;6.80;99.10;;;;;;5039833;28;20036;-69
2022/02/24 02:35:15;;;;;;;12.30;3.65;;;6.80;99.10;;;;;;5040232;28;20044;-69
2022/02/24 02:37:40;;;;;;;;;;;6.80;99.10;;;;;;5041577;28;20465;-69
2022/02/24 02:40:07;;;;;;;5.57;2.10;;;6.80;99.10;;;;;;5039021;28;19909;-69
2022/02/24 02:42:33;;;;;;;5.13;1.83;;;6.90;98.90;;;;;;5037872;28;20025;-69
2022/02/24 02:44:58;;;;;;;3.40;0.90;;;6.90;98.90;;;;;;5037878;28;20039;-69
2022/02/24 02:47:24;;;;;;;6.85;1.63;;;7.00;99.00;;;;;;5040515;28;20095;-69
2022/02/24 02:49:49;;;;;;;1.95;0.90;;;7.00;98.90;;;;;;5039851;28;20113;-69
2022/02/24 02:52:15;;;;;;;2.60;0.68;;;7.00;98.70;;;;;;5039139;28;20170;-70
2022/02/24 02:54:40;;;;;;;2.05;0.82;;;7.10;98.80;;;;;;5038860;28;20039;-69
2022/02/24 02:57:06;;;;;;;2.20;1.30;;;7.10;98.80;;;;;;5038507;28;20611;-69
2022/02/24 02:59:31;;;;;;;3.75;0.88;;;7.10;98.80;;;;;;5039245;28;20032;-69
2022/02/24 03:01:57;;;;;;;1.98;0.75;;;7.10;98.70;;;;;;5038044;28;20064;-69
2022/02/24 03:04:23;;;;;;;5.72;1.30;;;7.20;98.70;;;;;;5039157;28;20363;-69
2022/02/24 03:06:49;;;;;;;;;;;7.20;98.50;;;;;;5039974;28;20502;-69
2022/02/24 03:09:14;;;;;;;3.42;1.05;;;7.20;98.50;;;;;;5039652;28;19965;-69
2022/02/24 03:11:40;;;;;;;3.70;1.10;;;7.20;98.50;;;;;;5039860;28;20021;-70
2022/02/24 03:14:05;;;;;;;4.28;0.70;;;7.20;98.60;;;;;;5045765;28;20705;-69
2022/02/24 03:16:31;;;;;;;5.03;0.77;;;7.20;98.60;;;;;;5038168;28;20036;-69
2022/02/24 03:18:56;;;;;;;4.57;1.27;;;7.30;98.40;;;;;;5038625;28;20033;-69
2022/02/24 03:21:22;;;;;;;2.78;1.00;;;7.30;98.50;;;;;;5039173;28;20036;-69
2022/02/24 03:23:49;;;;;;;2.95;1.48;;;7.30;98.60;;;;;;5038763;28;20032;-69
2022/02/24 03:26:14;;;;;;;2.53;0.65;;;7.30;98.60;;;;;;5038827;28;20041;-69
2022/02/24 03:28:40;;;;;;;2.13;0.95;;;7.30;98.40;;;;;;5039561;28;20026;-69
2022/02/24 03:31:05;;;;;;;4.38;1.35;;;7.40;98.50;;;;;;5038127;28;20037;-69
2022/02/24 03:33:31;;;;;;;;;;;7.40;98.30;;;;;;5039256;28;20068;-69
2022/02/24 03:35:57;;;;;;;10.48;1.85;;;7.50;98.30;;;;;;5036923;28;19966;-69
2022/02/24 03:38:22;;;;;;;;;;;7.50;98.20;;;;;;5037683;28;20036;-69
2022/02/24 03:40:48;;;;;;;8.77;2.10;;;7.60;97.80;;;;;;5039469;28;19909;-69
2022/02/24 03:43:13;;;;;;;;;;;7.60;97.80;;;;;;5037933;28;20029;-69
2022/02/24 03:45:39;;;;;;;8.35;2.30;;;7.60;97.80;;;;;;5038385;28;19975;-69
2022/02/24 03:48:05;;;;;;;;;;;7.60;97.90;;;;;;5037537;28;20033;-69
2022/02/24 03:50:31;;;;;;;3.70;1.50;;;7.70;98.10;;;;;;5038256;28;19908;-69
2022/02/24 03:52:57;;;;;;;6.72;1.83;;;7.70;97.90;;;;;;5036909;28;20031;-69
2022/02/24 03:55:22;;;;;;;4.38;2.03;;;7.70;97.80;;;;;;5037797;28;20473;-69
2022/02/24 03:57:48;;;;;;;3.83;1.05;;;7.70;98.00;;;;;;5037732;28;20048;-69
2022/02/24 04:00:14;;;;;;;5.13;1.08;;;7.70;97.70;;;;;;5036353;28;20030;-69
2022/02/24 04:02:39;;;;;;;3.83;1.48;;;7.70;97.90;;;;;;5037850;28;20025;-69
2022/02/24 04:05:05;;;;;;;3.03;1.23;;;7.80;98.10;;;;;;5038433;28;20033;-69
2022/02/24 04:07:31;;;;;;;2.05;0.80;;;7.80;97.90;;;;;;5038798;28;20551;-69
2022/02/24 04:09:56;;;;;;;3.88;0.90;;;7.80;97.90;;;;;;5037007;28;20055;-69
2022/02/24 04:12:22;;;;;;;;;;;7.70;97.70;;;;;;5039336;28;20098;-69
2022/02/24 04:14:48;;;;;;;4.57;1.27;;;7.80;97.70;;;;;;5038531;28;19913;-69
2022/02/24 04:17:14;;;;;;;5.53;0.88;;;7.80;97.70;;;;;;5036268;28;20111;-69
2022/02/24 04:19:39;;;;;;;;;;;7.80;97.80;;;;;;5038985;28;20029;-69
2022/02/24 04:22:05;;;;;;;4.95;0.95;;;7.80;97.80;;;;;;5038682;28;19909;-69
2022/02/24 04:24:32;;;;;;;;;;;7.80;97.60;;;;;;5038140;28;20029;-69
2022/02/24 04:26:59;;;;;;;5.50;1.02;;;7.80;97.70;;;;;;5037192;28;19982;-69
2022/02/24 04:29:24;;;;;;;1.88;0.90;;;7.80;97.60;;;;;;5038848;28;20412;-69
2022/02/24 04:31:50;;;;;;;7.18;0.90;;;7.80;97.60;;;;;;5036931;28;20040;-69
2022/02/24 04:34:16;;;;;;;6.47;1.40;;;7.80;97.60;;;;;;5037520;28;20043;-69
2022/02/24 04:36:41;;;;;;;;;;;7.80;97.70;;;;;;5037544;28;20060;-70
2022/02/24 04:39:07;;;;;;;3.35;1.20;;;7.80;97.70;;;;;;5037803;28;19979;-69
2022/02/24 04:41:32;;;;;;;5.85;1.40;;;7.80;97.70;;;;;;5037284;28;20044;-69
2022/02/24 04:43:58;;;;;;;3.25;1.58;;;7.80;97.90;;;;;;5036861;28;20029;-69
2022/02/24 04:46:23;;;;;;;4.97;1.40;;;7.80;97.80;;;;;;5037908;28;20033;-70
2022/02/24 04:48:49;;;;;;;6.20;1.90;;;7.80;97.80;;;;;;5037357;28;20117;-69
2022/02/24 04:51:14;;;;;;;;;;;7.80;97.90;;;;;;5037778;28;20033;-69
2022/02/24 04:53:40;;;;;;;3.63;1.42;;;7.80;97.80;;;;;;5037608;28;20338;-69
2022/02/24 04:56:06;;;;;;;5.13;1.77;;;7.80;97.90;;;;;;5036506;28;20037;-70
2022/02/24 04:58:32;;;;;;;7.85;1.83;;;7.90;97.90;;;;;;5036441;28;20025;-70
2022/02/24 05:00:58;;;;;;;5.95;1.40;;;7.80;97.80;;;;;;5037345;28;20390;-69
2022/02/24 05:03:23;;;;;;;6.53;2.20;;;7.80;97.90;;;;;;5038577;28;20033;-69
2022/02/24 05:05:49;;;;;;;4.15;1.35;;;7.80;97.80;;;;;;5036651;28;20029;-69
2022/02/24 05:08:14;;;;;;;5.18;1.65;;;7.80;98.10;;;;;;5038587;28;20033;-69
2022/02/24 05:10:40;;;;;;;10.65;3.03;;;7.80;97.80;;;;;;5039830;28;20174;-69
2022/02/24 05:13:05;;;;;;;10.40;4.03;;;7.90;98.00;;;;;;5041064;28;20120;-69
2022/02/24 05:15:31;;;;;;;11.00;5.30;;;7.80;98.00;;;;;;5040563;28;20128;-69
2022/02/24 05:17:57;;;;;;;5.20;2.47;;;7.90;98.00;;;;;;5041505;28;20027;-69
2022/02/24 05:20:23;;;;;;;9.77;4.80;;;7.90;97.90;;;;;;5039126;28;20025;-69
2022/02/24 05:22:49;;;;;;;12.35;5.97;;;7.80;98.10;;;;;;5040415;28;20124;-69
2022/02/24 05:25:15;;;;;;;;;;;7.80;98.10;;;;;;5043916;28;20021;-69
2022/02/24 05:27:42;;;;;;;7.25;3.13;;;7.80;98.20;;;;;;5040594;28;19920;-69
2022/02/24 05:30:10;;;;;;;7.30;3.08;;;7.80;98.30;;;;;;5041846;28;20733;-70
2022/02/24 05:32:35;;;;;;;5.55;1.88;;;7.80;98.20;;;;;;5039812;28;20029;-69
2022/02/24 05:35:01;;;;;;;5.18;1.65;;;7.80;98.20;;;;;;5041260;28;20017;-69
2022/02/24 05:37:27;;;;;;;8.60;2.42;;;7.80;98.30;;;;;;5040445;28;20952;-69
2022/02/24 05:39:57;;;;;;;4.80;1.55;;;7.80;98.40;;;;;;5036835;28;20573;-69
2022/02/24 05:42:23;;;;;;;9.38;2.47;;;7.80;98.30;;;;;;5040356;28;20032;-69
2022/02/24 05:44:49;;;;;;;;;;;7.80;98.50;;;;;;5038835;28;20032;-69
2022/02/24 05:47:18;;;;;;;6.93;3.17;;;7.80;98.50;;;;;;5038448;28;19913;-70
2022/02/24 05:49:44;;;;;;;10.30;4.20;;;7.90;98.50;;;;;;5040283;28;20029;-70
2022/02/24 05:52:10;;;;;;;13.20;5.25;;;7.90;98.40;;;;;;5039540;28;20556;-70
2022/02/24 05:54:35;;;;;;;20.10;6.30;;;7.90;98.40;;;;;;5040028;28;20037;-70
2022/02/24 05:57:01;;;;;;;24.92;7.30;;;7.90;98.50;;;;;;5038718;28;20025;-69
2022/02/24 05:59:27;;;;;;;20.02;7.25;;;7.90;98.40;;;;;;5040631;28;20237;-69
2022/02/24 06:01:53;;;;;;;24.75;8.65;;;7.90;98.50;;;;;;5038228;28;20108;-69
2022/02/24 06:04:18;;;;;;;19.13;8.90;;;7.90;98.50;;;;;;5038355;28;20551;-69
2022/02/24 06:06:44;;;;;;;;;;;7.90;98.50;;;;;;5039996;28;20052;-69
2022/02/24 06:09:10;;;;;;;22.38;8.98;;;7.90;98.60;;;;;;5039822;28;19920;-70
2022/02/24 06:11:35;;;;;;;21.25;6.82;;;7.90;98.60;;;;;;5039116;28;20029;-70
2022/02/24 06:14:02;;;;;;;17.52;6.90;;;7.90;98.60;;;;;;5039186;28;20030;-69
2022/02/24 06:16:27;;;;;;;;;;;7.90;98.70;;;;;;5039235;28;20040;-69
2022/02/24 06:18:52;;;;;;;8.57;3.83;;;7.90;98.60;;;;;;5040112;28;19979;-70
2022/02/24 06:21:18;;;;;;;;;;;8.00;98.80;;;;;;5038260;28;20031;-70
2022/02/24 06:23:46;;;;;;;10.00;2.78;;;7.90;98.70;;;;;;5038289;28;20389;-70
2022/02/24 06:26:13;;;;;;;12.07;2.72;;;8.00;98.70;;;;;;5040278;28;20025;-71
2022/02/24 06:28:38;;;;;;;5.75;1.92;;;7.90;98.70;;;;;;5040499;28;20421;-70
2022/02/24 06:31:03;;;;;;;;;;;7.90;98.70;;;;;;5036840;28;20033;-72
2022/02/24 06:33:29;;;;;;;8.55;2.33;;;7.90;98.80;;;;;;5038493;28;19908;-71
2022/02/24 06:35:54;;;;;;;;;;;7.90;98.90;;;;;;5043983;22;20556;-55
2022/02/24 06:38:20;;;;;;;10.10;1.88;;;7.90;98.80;;;;;;5032293;28;20280;-55
2022/02/24 06:40:46;;;;;;;8.43;1.60;;;7.90;98.90;;;;;;5026920;28;20030;-54
2022/02/24 06:43:11;;;;;;;;;;;7.90;99.00;;;;;;5024573;28;20052;-55
2022/02/24 06:45:37;;;;;;;5.93;1.42;;;7.90;98.80;;;;;;5032472;28;20346;-55
2022/02/24 06:48:02;;;;;;;;;;;7.90;98.90;;;;;;5025759;28;20299;-55
2022/02/24 06:50:28;;;;;;;9.65;2.63;;;7.90;98.90;;;;;;5029208;28;19909;-54
2022/02/24 06:52:53;;;;;;;11.00;1.33;;;7.90;98.90;;;;;;5024548;28;20383;-53
2022/02/24 06:55:19;;;;;;;;;;;7.90;98.90;;;;;;5031454;28;20197;-55
2022/02/24 06:57:46;;;;;;;3.28;1.27;;;7.90;98.90;;;;;;5028064;28;19915;-55
2022/02/24 07:00:13;;;;;;;6.72;1.65;;;8.00;98.90;;;;;;5030165;28;20442;-55
2022/02/24 07:02:39;;;;;;;11.25;2.42;;;8.00;99.00;;;;;;5034336;28;20486;-55
2022/02/24 07:05:05;;;;;;;;;;;8.00;99.00;;;;;;5029236;28;20121;-55
2022/02/24 07:07:33;;;;;;;10.85;2.30;;;7.90;98.90;;;;;;5027818;28;19909;-55
2022/02/24 07:09:58;;;;;;;6.30;1.75;;;8.00;98.80;;;;;;5027927;28;20048;-55
2022/02/24 07:12:24;;;;;;;;;;;8.00;98.80;;;;;;5029189;28;20359;-53
2022/02/24 07:14:49;;;;;;;7.07;2.83;;;8.00;98.90;;;;;;5027334;28;20369;-53
2022/02/24 07:17:15;;;;;;;11.40;2.83;;;8.00;98.80;;;;;;5031268;28;20021;-56
2022/02/24 07:19:40;;;;;;;;;;;8.00;98.80;;;;;;5026450;28;20156;-52
2022/02/24 07:22:06;;;;;;;9.77;3.42;;;8.00;98.80;;;;;;5030220;28;20572;-51
2022/02/24 07:24:31;;;;;;;12.48;2.50;;;8.10;98.70;;;;;;5026551;28;20025;-56
2022/02/24 07:26:57;;;;;;;14.13;3.50;;;8.10;98.70;;;;;;5028452;28;20636;-55
2022/02/24 07:29:22;;;;;;;;;;;8.20;98.60;;;;;;5027627;28;20033;-52
2022/02/24 07:31:48;;;;;;;15.65;4.20;;;8.20;98.60;;;;;;5027665;28;19919;-55
2022/02/24 07:34:13;;;;;;;9.48;3.58;;;8.20;98.50;;;;;;5041964;28;20029;-53
2022/02/24 07:36:40;;;;;;;9.15;3.10;;;8.30;98.40;;;;;;5028222;28;20028;-53
2022/02/24 07:39:10;;;;;;;8.23;3.88;;;8.30;98.50;;;;;;5031322;28;20029;-55
2022/02/24 07:41:38;;;;;;;13.43;3.70;;;8.40;98.60;;;;;;5034805;28;20029;-55
2022/02/24 07:44:05;;;;;;;10.70;2.97;;;8.40;98.40;;;;;;5036981;28;20053;-54
2022/02/24 07:46:30;;;;;;;8.48;2.42;;;8.40;98.40;;;;;;5036811;28;20037;-54
2022/02/24 07:48:56;;;;;;;;;;;8.40;98.40;;;;;;5033521;28;20079;-52
2022/02/24 07:51:21;;;;;;;7.32;1.80;;;8.40;98.20;;;;;;5037092;28;19909;-53
2022/02/24 07:53:47;;;;;;;;;;;8.50;98.30;;;;;;5033436;28;20035;-55
2022/02/24 07:56:12;;;;;;;11.32;2.63;;;8.50;98.30;;;;;;5035014;28;19916;-53
2022/02/24 07:58:38;;;;;;;12.40;3.03;;;8.50;98.10;;;;;;5031378;28;20071;-55
2022/02/24 08:01:03;;;;;;;7.88;3.08;;;8.50;97.90;;;;;;5030210;28;20034;-55
2022/02/24 08:03:29;;;;;;;;;;;8.60;98.00;;;;;;5028189;28;20053;-52
2022/02/24 08:05:55;;;;;;;12.43;2.53;;;8.60;97.80;;;;;;5027221;28;20345;-54
2022/02/24 08:08:20;;;;;;;;;;;8.70;97.80;;;;;;5027331;28;20065;-53
2022/02/24 08:10:47;;;;;;;6.72;1.70;;;8.70;97.90;;;;;;5027676;28;19909;-55
2022/02/24 08:13:13;;;;;;;14.88;2.10;;;8.70;97.70;;;;;;5027054;28;20053;-53
2022/02/24 08:15:38;;;;;;;;;;;8.70;97.70;;;;;;5030490;28;20105;-54
2022/02/24 08:18:04;;;;;;;8.13;1.33;;;8.70;97.60;;;;;;5028488;28;20298;-54
2022/02/24 08:20:29;;;;;;;;;;;8.70;97.60;;;;;;5028099;28;20502;-54
2022/02/24 08:22:58;;;;;;;10.23;2.03;;;8.70;97.60;;;;;;5025375;28;19909;-53
2022/02/24 08:25:23;;;;;;;4.68;1.55;;;8.70;97.40;;;;;;5028303;28;20037;-53
2022/02/24 08:27:49;;;;;;;;;;;8.70;97.50;;;;;;5026841;28;20028;-53
2022/02/24 08:30:17;;;;;;;6.85;2.42;;;8.80;97.50;;;;;;5027491;28;19923;-52
2022/02/24 08:32:45;;;;;;;9.48;2.55;;;8.80;97.60;;;;;;5030816;28;20087;-52
2022/02/24 08:35:11;;;;;;;6.28;2.35;;;8.80;97.60;;;;;;5028316;28;20037;-55
2022/02/24 08:37:37;;;;;;;;;;;8.80;97.80;;;;;;5027855;28;20511;-52
2022/02/24 08:40:06;;;;;;;8.98;1.80;;;8.80;97.60;;;;;;5029834;28;20384;-56
2022/02/24 08:42:32;;;;;;;7.38;2.05;;;8.80;97.60;;;;;;5036322;28;20030;-55
2022/02/24 08:44:57;;;;;;;;;;;8.80;97.60;;;;;;5030997;28;20036;-55
2022/02/24 08:47:23;;;;;;;7.40;2.10;;;8.80;97.60;;;;;;5035472;28;19919;-52
2022/02/24 08:49:49;;;;;;;;;;;8.90;97.50;;;;;;5030475;28;20524;-56
2022/02/24 08:52:15;;;;;;;7.40;2.17;;;8.80;97.80;;;;;;5030538;28;19913;-55
2022/02/24 08:54:41;;;;;;;;;;;8.90;97.70;;;;;;5034250;28;20037;-52
2022/02/24 08:57:06;;;;;;;7.85;3.08;;;8.90;97.70;;;;;;5030447;28;19913;-54
2022/02/24 08:59:32;;;;;;;15.52;3.58;;;8.90;97.50;;;;;;5031900;28;20079;-52
2022/02/24 09:01:57;;;;;;;;;;;8.90;97.60;;;;;;5033540;28;20041;-55
2022/02/24 09:04:23;;;;;;;12.65;2.72;;;9.00;97.60;;;;;;5034722;28;19909;-55
2022/02/24 09:06:49;;;;;;;8.05;2.90;;;9.10;97.60;;;;;;5032591;28;20021;-54
2022/02/24 09:09:14;;;;;;;;;;;9.10;97.30;;;;;;5033805;28;20029;-53
2022/02/24 09:11:40;;;;;;;9.68;3.22;;;9.20;97.30;;;;;;5037315;28;20189;-56
2022/02/24 09:14:06;;;;;;;;;;;9.20;97.20;;;;;;5037976;28;20486;-55
2022/02/24 09:16:31;;;;;;;11.75;1.98;;;9.20;97.20;;;;;;5033610;28;19970;-51
2022/02/24 09:18:57;;;;;;;9.48;2.45;;;9.30;97.20;;;;;;5031637;28;20030;-54
2022/02/24 09:21:23;;;;;;;;;;;9.30;96.90;;;;;;5031504;28;20040;-53
2022/02/24 09:23:49;;;;;;;7.60;1.83;;;9.40;96.90;;;;;;5029178;28;19980;-56
2022/02/24 09:26:15;;;;;;;5.65;1.67;;;9.40;97.00;;;;;;5030399;28;20541;-52
2022/02/24 09:28:41;;;;;;;;;;;9.50;97.00;;;;;;5028684;28;20025;-53
2022/02/24 09:31:06;;;;;;;4.88;1.27;;;9.50;96.80;;;;;;5029211;28;19940;-55
2022/02/24 09:33:32;;;;;;;2.55;1.00;;;9.60;96.20;;;;;;5030590;28;20083;-53
2022/02/24 09:35:57;;;;;;;6.63;1.05;;;9.70;96.40;;;;;;5032487;28;20045;-56
2022/02/24 09:38:24;;;;;;;5.03;1.40;;;9.80;96.20;;;;;;5030002;28;20025;-54
2022/02/24 09:40:52;;;;;;;5.50;1.02;;;9.80;96.10;;;;;;5029206;28;20116;-56
2022/02/24 09:43:28;;;;;;;6.32;2.03;;;9.90;96.20;;;;;;5028677;28;20017;-53
2022/02/24 09:45:59;;;;;;;9.45;1.10;;;10.00;95.80;;;;;;5029708;28;20036;-54
2022/02/24 09:48:31;;;;;;;3.72;1.45;;;10.00;95.80;;;;;;5030245;28;20056;-56
2022/02/24 09:50:58;;;;;;;10.07;1.60;;;10.10;95.90;;;;;;5029937;28;20479;-55
2022/02/24 09:53:26;;;;;;;5.72;2.08;;;10.20;95.80;;;;;;5030386;28;20406;-56
2022/02/24 09:55:52;;;;;;;3.78;1.27;;;10.20;95.50;;;;;;5028366;28;20288;-55
2022/02/24 09:58:17;;;;;;;;;;;10.30;95.60;;;;;;5030465;28;20353;-56
2022/02/24 10:00:43;;;;;;;3.90;1.25;;;10.30;95.70;;;;;;5029668;28;19912;-53
2022/02/24 10:03:40;;;;;;;;;;;10.40;95.40;;;;;;5028358;28;20025;-55
2022/02/24 10:06:08;;;;;;;3.63;1.00;;;10.40;95.40;;;;;;5024220;28;20039;-56
2022/02/24 10:08:36;;;;;;;4.40;1.00;;;10.50;95.30;;;;;;5029618;28;20039;-54
2022/02/24 10:11:03;;;;;;;3.35;1.15;;;10.60;94.90;;;;;;5030240;28;20021;-55
2022/02/24 10:13:29;;;;;;;7.55;1.23;;;10.70;94.80;;;;;;5030486;28;20033;-52
2022/02/24 10:16:02;;;;;;;6.03;1.83;;;10.80;94.40;;;;;;5028020;28;20021;-55
2022/02/24 10:18:30;;;;;;;5.53;1.50;;;10.90;94.40;;;;;;5031172;28;20557;-55
2022/02/24 10:21:01;;;;;;;5.78;1.35;;;11.00;93.90;;;;;;5032486;28;20048;-55
2022/02/24 10:23:38;;;;;;;5.63;1.65;;;11.10;93.90;;;;;;5036638;28;20032;-52
2022/02/24 10:26:09;;;;;;;4.40;1.48;;;11.20;93.80;;;;;;5034880;28;20037;-55
2022/02/24 10:28:37;;;;;;;4.95;1.58;;;11.20;93.50;;;;;;5036154;28;20050;-53
2022/02/24 10:31:14;;;;;;;13.52;1.88;;;11.30;93.50;;;;;;5037581;28;20057;-56
2022/02/24 10:33:44;;;;;;;5.47;1.45;;;11.30;93.50;;;;;;5030015;28;20068;-55
2022/02/24 10:36:24;;;;;;;6.68;2.13;;;11.40;93.40;;;;;;5027720;28;20064;-56
2022/02/24 10:39:04;;;;;;;6.05;1.42;;;11.50;93.20;;;;;;5036617;28;20124;-52
2022/02/24 10:41:35;;;;;;;13.70;2.83;;;11.50;92.80;;;;;;5034048;28;20025;-55
2022/02/24 10:44:20;;;;;;;8.80;2.33;;;11.50;92.40;;;;;;5028134;28;20025;-56
2022/02/24 10:46:51;;;;;;;11.32;3.22;;;11.50;92.70;;;;;;5031582;28;20080;-56
2022/02/24 10:49:28;;;;;;;7.97;2.05;;;11.60;92.40;;;;;;5028486;28;20505;-54
2022/02/24 10:52:13;;;;;;;4.25;1.52;;;11.60;92.50;;;;;;5028789;28;20044;-56
2022/02/24 10:54:40;;;;;;;5.65;1.30;;;11.70;92.40;;;;;;5029386;28;20037;-54
2022/02/24 10:57:26;;;;;;;6.88;1.20;;;11.70;92.60;;;;;;5028863;28;20490;-55
2022/02/24 10:59:52;;;;;;;3.30;1.48;;;11.70;92.60;;;;;;5033229;28;20025;-54
2022/02/24 11:02:19;;;;;;;7.07;1.40;;;11.70;92.60;;;;;;5028850;28;20075;-56
2022/02/24 11:04:45;;;;;;;7.30;1.48;;;11.70;92.40;;;;;;5027578;28;20025;-56
2022/02/24 11:07:11;;;;;;;9.45;2.25;;;11.60;92.40;;;;;;5027986;28;20578;-55
2022/02/24 11:09:39;;;;;;;4.50;1.10;;;11.60;92.90;;;;;;5026074;28;20025;-56
2022/02/24 11:12:08;;;;;;;6.40;1.83;;;11.60;92.70;;;;;;5026772;28;20052;-56
2022/02/24 11:14:34;;;;;;;7.55;1.95;;;11.60;92.90;;;;;;5033217;28;20040;-56
2022/02/24 11:17:06;;;;;;;1.88;1.05;;;11.60;93.30;;;;;;5030262;28;20067;-53
2022/02/24 11:19:35;;;;;;;5.38;2.75;;;11.60;93.30;;;;;;5005534;28;20056;-55
2022/02/24 11:22:02;;;;;;;7.38;1.40;;;11.50;93.40;;;;;;5005969;28;20555;-53
2022/02/24 11:24:27;;;;;;;7.13;1.40;;;11.50;93.40;;;;;;5005624;28;20125;-56
2022/02/24 11:27:08;;;;;;;;;;;11.50;93.50;;;;;;5002105;28;20109;-54
2022/02/24 11:29:46;;;;;;;5.50;1.20;;;11.40;93.50;;;;;;4999192;28;19925;-55
2022/02/24 11:32:15;;;;;;;7.38;1.40;;;11.40;93.60;;;;;;5000957;28;20025;-57
2022/02/24 11:34:57;;;;;;;4.20;0.70;;;11.40;93.50;;;;;;5002644;28;20040;-54
2022/02/24 11:37:29;;;;;;;11.15;1.33;;;11.40;93.60;;;;;;5005659;28;20382;-56
2022/02/24 11:40:27;;;;;;;5.28;1.05;;;11.50;93.70;;;;;;4999476;28;20030;-55
2022/02/24 11:43:09;;;;;;;9.65;1.85;;;11.60;93.50;;;;;;5000566;28;20029;-57
2022/02/24 11:45:46;;;;;;;4.47;1.40;;;11.80;93.50;;;;;;4996351;28;20065;-55
2022/02/24 11:48:12;;;;;;;6.70;1.75;;;11.80;93.20;;;;;;5004126;28;20034;-57
2022/02/24 11:50:37;;;;;;;;;;;11.80;93.00;;;;;;4998973;28;20022;-58
2022/02/24 11:53:05;;;;;;;4.32;1.70;;;11.80;93.20;;;;;;5002076;28;19996;-52
2022/02/24 11:55:41;;;;;;;3.47;1.35;;;11.80;93.20;;;;;;5000284;28;20060;-55
2022/02/24 11:58:43;;;;;;;6.32;1.10;;;11.90;93.20;;;;;;5002882;28;20029;-55
2022/02/24 12:01:10;;;;;;;4.45;1.27;;;11.90;93.10;;;;;;4994140;28;20642;-52
2022/02/24 12:03:48;;;;;;;7.13;1.00;;;12.10;93.10;;;;;;4983372;28;20034;-55
2022/02/24 12:06:21;;;;;;;6.03;1.98;;;12.10;92.60;;;;;;5003036;28;20498;-54
2022/02/24 12:09:14;;;;;;;5.28;2.58;;;12.20;92.60;;;;;;5003788;28;20033;-54
2022/02/24 12:11:45;;;;;;;10.18;1.50;;;12.20;92.60;;;;;;5005258;28;20555;-52
2022/02/24 12:14:20;;;;;;;5.40;1.17;;;12.20;92.60;;;;;;5000560;28;20053;-53
2022/02/24 12:17:03;;;;;;;7.55;1.52;;;12.30;92.60;;;;;;5005930;28;20113;-53
2022/02/24 12:19:35;;;;;;;5.90;1.67;;;12.40;92.30;;;;;;4998374;28;20492;-54
2022/02/24 12:22:26;;;;;;;4.53;1.55;;;12.50;91.80;;;;;;5004262;28;20037;-52
2022/02/24 12:24:54;;;;;;;10.60;1.73;;;12.60;91.80;;;;;;5005877;28;20056;-51
2022/02/24 12:27:34;;;;;;;5.35;2.00;;;12.60;91.50;;;;;;5003218;28;20122;-52
2022/02/24 12:30:01;;;;;;;7.28;1.30;;;12.50;91.40;;;;;;5004923;28;20068;-55
2022/02/24 12:32:56;;;;;;;6.22;2.28;;;12.50;91.50;;;;;;5000614;28;20030;-56
2022/02/24 12:35:23;;;;;;;4.55;1.42;;;12.50;91.80;;;;;;5001352;28;20034;-57
2022/02/24 12:37:51;;;;;;;5.65;1.67;;;12.40;91.80;;;;;;5002491;28;20062;-58
2022/02/24 12:40:31;;;;;;;5.65;1.50;;;12.40;92.00;;;;;;5000353;28;20026;-55
2022/02/24 12:42:59;;;;;;;7.43;1.13;;;12.30;92.20;;;;;;4999935;28;20090;-53
2022/02/24 12:45:25;;;;;;;2.92;1.55;;;12.30;92.30;;;;;;5001395;28;20039;-58
2022/02/24 12:47:51;;;;;;;;;;;12.20;92.50;;;;;;4995708;28;20103;-55
2022/02/24 12:50:26;;;;;;;7.82;1.33;;;12.20;92.70;;;;;;4999992;28;19941;-53
2022/02/24 12:53:03;;;;;;;7.78;1.55;;;12.20;92.80;;;;;;5002435;28;20042;-57
2022/02/24 12:55:29;;;;;;;8.65;2.13;;;12.20;92.80;;;;;;5001071;28;20036;-58
2022/02/24 12:57:56;;;;;;;;;;;12.10;92.70;;;;;;5002387;28;20026;-57
2022/02/24 13:00:21;;;;;;;3.60;1.75;;;12.00;93.00;;;;;;5002856;28;20015;-56
2022/02/24 13:02:47;;;;;;;;;;;12.00;93.30;;;;;;5003230;28;20033;-54
2022/02/24 13:05:12;;;;;;;6.22;1.75;;;12.00;93.20;;;;;;5001408;28;20404;-54
2022/02/24 13:10:34;;;;;;;7.13;1.23;;;12.10;93.10;;;;;;5000056;28;19928;-53
2022/02/24 13:12:59;;;;;;;5.63;1.40;;;12.10;92.90;;;;;;5001679;28;20061;-50